createdAt,value
2023-02-19T00:00:40.632Z,2.53
2023-02-19T00:05:42.662Z,2.50
2023-02-19T00:10:44.867Z,2.63
2023-02-19T00:21:11.516Z,3.23
2023-02-19T00:26:18.475Z,2.53
2023-02-19T00:31:24.643Z,2.37
2023-02-19T00:36:28.159Z,2.80
2023-02-19T00:41:30.569Z,2.80
2023-02-19T00:46:36.021Z,3.40
2023-02-19T00:51:38.922Z,2.80
2023-02-19T00:56:41.304Z,2.60
2023-02-19T01:01:45.142Z,2.90
2023-02-19T01:06:47.340Z,2.57
2023-02-19T01:11:49.437Z,2.43
2023-02-19T01:16:52.862Z,2.27
2023-02-19T01:21:55.345Z,2.40
2023-02-19T01:26:57.767Z,1.80
2023-02-19T01:32:01.542Z,1.70
2023-02-19T01:37:03.690Z,1.97
2023-02-19T01:42:06.470Z,1.50
2023-02-19T01:47:09.971Z,1.77
2023-02-19T01:52:15.746Z,1.40
2023-02-19T01:57:23.079Z,1.63
2023-02-19T02:02:26.652Z,1.03
2023-02-19T02:07:28.639Z,0.97
2023-02-19T02:12:30.671Z,0.83
2023-02-19T02:17:44.195Z,1.07
2023-02-19T02:22:53.212Z,1.00
2023-02-19T02:33:44.741Z,1.27
2023-02-19T02:44:34.373Z,1.20
2023-02-19T02:49:37.940Z,0.97
2023-02-19T02:54:40.120Z,1.43
2023-02-19T02:59:43.622Z,1.67
2023-02-19T03:04:52.835Z,1.77
2023-02-19T03:09:57.103Z,2.40
2023-02-19T03:15:04.632Z,2.60
2023-02-19T03:20:14.158Z,3.63
2023-02-19T03:25:28.530Z,2.43
2023-02-19T03:36:22.830Z,2.27
2023-02-19T03:41:31.192Z,2.00
2023-02-19T03:46:42.588Z,1.90
2023-02-19T03:51:51.810Z,1.90
2023-02-19T03:57:00.605Z,1.60
2023-02-19T04:02:34.366Z,1.40
2023-02-19T04:07:42.691Z,1.60
2023-02-19T04:12:50.337Z,1.50
2023-02-19T04:17:56.754Z,2.07
2023-02-19T04:23:00.353Z,1.77
2023-02-19T04:28:02.852Z,1.30
2023-02-19T04:33:05.128Z,1.73
2023-02-19T04:38:08.465Z,1.73
2023-02-19T04:43:11.328Z,1.30
2023-02-19T04:48:13.484Z,1.80
2023-02-19T04:53:17.019Z,1.43
2023-02-19T04:58:20.452Z,1.63
2023-02-19T05:03:22.182Z,1.93
2023-02-19T05:08:25.520Z,1.37
2023-02-19T05:13:28.102Z,1.50
2023-02-19T05:18:31.626Z,1.60
2023-02-19T05:23:39.711Z,1.60
2023-02-19T05:28:41.853Z,1.47
2023-02-19T05:33:44.839Z,1.87
2023-02-19T05:38:51.929Z,1.77
2023-02-19T05:43:54.788Z,1.40
2023-02-19T05:48:57.003Z,1.97
2023-02-19T05:54:00.517Z,1.80
2023-02-19T05:59:05.373Z,1.60
2023-02-19T06:04:07.420Z,2.10
2023-02-19T06:09:11.813Z,2.20
2023-02-19T06:14:14.503Z,2.10
2023-02-19T06:19:17.074Z,1.57
2023-02-19T06:24:20.716Z,1.90
2023-02-19T06:29:22.794Z,1.50
2023-02-19T06:34:25.342Z,1.60
2023-02-19T06:39:28.911Z,1.90
2023-02-19T06:44:36.993Z,2.07
2023-02-19T06:49:48.619Z,1.87
2023-02-19T06:54:51.961Z,1.57
2023-02-19T06:59:53.948Z,2.03
2023-02-19T07:04:56.082Z,2.10
2023-02-19T07:09:59.267Z,1.70
2023-02-19T07:15:01.288Z,1.67
2023-02-19T07:20:04.091Z,1.83
2023-02-19T07:25:07.809Z,1.80
2023-02-19T07:30:10.855Z,2.17
2023-02-19T07:35:13.282Z,1.87
2023-02-19T07:40:16.497Z,1.80
2023-02-19T07:45:18.612Z,1.70
2023-02-19T07:50:20.683Z,1.70
2023-02-19T07:55:23.800Z,1.63
2023-02-19T08:00:26.557Z,1.97
2023-02-19T08:05:30.251Z,2.50
2023-02-19T08:10:33.457Z,1.40
2023-02-19T08:15:35.879Z,1.77
2023-02-19T08:20:37.682Z,1.97
2023-02-19T08:25:41.892Z,1.30
2023-02-19T08:30:45.897Z,1.33
2023-02-19T08:35:49.230Z,1.37
2023-02-19T08:40:52.843Z,1.20
2023-02-19T08:46:05.337Z,1.23
2023-02-19T08:51:11.571Z,1.30
2023-02-19T08:56:32.187Z,1.30
2023-02-19T09:01:34.859Z,0.90
2023-02-19T09:06:39.151Z,0.83
2023-02-19T09:11:43.331Z,1.30
2023-02-19T09:16:45.241Z,1.10
2023-02-19T09:21:47.423Z,1.00
2023-02-19T09:26:51.080Z,0.93
2023-02-19T09:31:56.182Z,0.73
2023-02-19T09:36:58.249Z,0.77
2023-02-19T09:42:04.626Z,0.90
2023-02-19T09:47:13.566Z,1.37
2023-02-19T09:52:19.525Z,0.70
2023-02-19T09:57:24.478Z,1.13
2023-02-19T10:02:27.351Z,1.53
2023-02-19T10:07:37.210Z,0.80
2023-02-19T10:12:45.701Z,0.60
2023-02-19T10:18:03.221Z,0.57
2023-02-19T10:23:08.259Z,0.70
2023-02-19T10:28:15.521Z,0.60
2023-02-19T10:33:17.314Z,0.53
2023-02-19T10:38:36.798Z,0.60
2023-02-19T10:43:43.336Z,0.60
2023-02-19T10:48:50.049Z,0.83
2023-02-19T10:54:04.706Z,0.80
2023-02-19T10:59:24.609Z,0.50
2023-02-19T11:04:28.381Z,0.67
2023-02-19T11:09:37.425Z,0.73
2023-02-19T11:14:44.130Z,0.73
2023-02-19T11:19:46.991Z,0.63
2023-02-19T11:24:51.170Z,0.60
2023-02-19T11:29:54.970Z,0.50
2023-02-19T11:35:15.311Z,0.40
2023-02-19T11:40:17.921Z,0.60
2023-02-19T11:45:35.098Z,0.60
2023-02-19T11:50:48.369Z,0.70
2023-02-19T11:56:09.744Z,0.73
2023-02-19T12:01:24.120Z,0.80
2023-02-19T12:06:34.779Z,0.37
2023-02-19T12:11:50.139Z,0.30
2023-02-19T12:17:02.739Z,0.40
2023-02-19T12:22:38.218Z,0.50
2023-02-19T12:27:50.321Z,0.30
2023-02-19T12:33:20.882Z,0.70
2023-02-19T12:44:17.132Z,0.40
2023-02-19T12:49:40.502Z,0.50
2023-02-19T12:54:45.791Z,0.90
2023-02-19T12:59:53.853Z,0.40
2023-02-19T13:05:04.691Z,0.50
2023-02-19T13:10:19.518Z,0.30
2023-02-19T13:15:28.545Z,0.50
2023-02-19T13:20:36.857Z,0.43
2023-02-19T13:25:49.515Z,0.80
2023-02-19T13:31:16.390Z,0.37
2023-02-19T13:36:25.898Z,0.30
2023-02-19T13:41:30.109Z,0.40
2023-02-19T13:46:38.912Z,0.47
2023-02-19T13:51:50.810Z,0.47
2023-02-19T13:57:26.093Z,0.20
2023-02-19T14:02:32.163Z,0.50
2023-02-19T14:07:54.936Z,0.60
2023-02-19T14:12:57.216Z,0.50
2023-02-19T14:17:59.287Z,0.50
2023-02-19T14:23:24.499Z,0.33
2023-02-19T14:28:30.586Z,0.30
2023-02-19T14:33:35.484Z,0.67
2023-02-19T14:38:45.895Z,0.40
2023-02-19T14:43:50.518Z,0.20
2023-02-19T14:48:52.469Z,0.23
2023-02-19T14:53:57.468Z,0.50
2023-02-19T14:59:21.335Z,0.47
2023-02-19T15:04:25.283Z,0.50
2023-02-19T15:09:32.734Z,0.33
2023-02-19T15:14:35.196Z,0.30
2023-02-19T15:19:37.456Z,0.33
2023-02-19T15:24:43.840Z,0.40
2023-02-19T15:29:46.552Z,0.30
2023-02-19T15:34:56.419Z,0.20
2023-02-19T15:40:03.492Z,0.43
2023-02-19T15:45:15.617Z,0.50
2023-02-19T15:50:22.687Z,0.50
2023-02-19T15:55:33.085Z,0.50
2023-02-19T16:00:40.058Z,0.43
2023-02-19T16:05:41.855Z,1.40
2023-02-19T16:10:55.502Z,0.50
2023-02-19T16:16:07.042Z,0.57
2023-02-19T16:21:09.325Z,0.47
2023-02-19T16:26:12.718Z,0.43
2023-02-19T16:31:15.716Z,0.50
2023-02-19T16:36:20.433Z,0.57
2023-02-19T16:41:58.784Z,0.60
2023-02-19T16:47:05.507Z,0.77
2023-02-19T16:52:07.664Z,0.40
2023-02-19T16:57:09.855Z,1.00
2023-02-19T17:02:18.666Z,0.93
2023-02-19T17:07:20.698Z,1.03
2023-02-19T17:12:23.736Z,0.77
2023-02-19T17:17:26.911Z,0.80
2023-02-19T17:22:28.836Z,1.17
2023-02-19T17:27:30.637Z,1.40
2023-02-19T17:32:34.117Z,2.47
2023-02-19T17:37:35.911Z,1.70
2023-02-19T17:42:38.018Z,1.27
2023-02-19T17:47:41.869Z,1.93
2023-02-19T17:52:43.729Z,4.17
2023-02-19T17:57:46.578Z,3.27
2023-02-19T18:02:50.510Z,2.80
2023-02-19T18:07:52.808Z,3.17
2023-02-19T18:12:54.898Z,3.83
2023-02-19T18:17:58.138Z,3.40
2023-02-19T18:23:00.714Z,3.23
2023-02-19T18:28:03.565Z,2.67
2023-02-19T18:33:07.245Z,3.20
2023-02-19T18:38:10.034Z,2.80
2023-02-19T18:43:12.504Z,3.97
2023-02-19T18:48:17.601Z,3.63
2023-02-19T18:53:19.406Z,3.63
2023-02-19T18:58:21.156Z,2.40
2023-02-19T19:03:24.857Z,2.47
2023-02-19T19:08:27.466Z,1.60
2023-02-19T19:13:30.879Z,1.20
2023-02-19T19:18:34.254Z,2.23
2023-02-19T19:23:36.920Z,2.30
2023-02-19T19:28:40.636Z,2.63
2023-02-19T19:33:45.133Z,1.93
2023-02-19T19:38:48.011Z,2.30
2023-02-19T19:43:50.558Z,2.00
2023-02-19T19:48:54.811Z,1.90
2023-02-19T19:53:56.643Z,1.67
2023-02-19T19:58:59.090Z,1.93
2023-02-19T20:04:03.378Z,1.70
2023-02-19T20:09:05.894Z,1.50
2023-02-19T20:14:08.426Z,1.80
2023-02-19T20:19:13.592Z,1.70
2023-02-19T20:24:16.334Z,2.50
2023-02-19T20:29:18.732Z,2.30
2023-02-19T20:34:23.289Z,1.93
2023-02-19T20:39:25.497Z,2.80
2023-02-19T20:44:28.777Z,2.43
2023-02-19T20:49:32.253Z,1.80
2023-02-19T20:54:36.277Z,2.20
2023-02-19T20:59:38.768Z,2.23
2023-02-19T21:04:42.586Z,2.73
2023-02-19T21:09:44.889Z,2.20
2023-02-19T21:14:47.267Z,1.83
2023-02-19T21:19:50.847Z,2.00
2023-02-19T21:24:52.997Z,1.57
2023-02-19T21:29:54.898Z,1.30
2023-02-19T21:34:58.319Z,1.53
2023-02-19T21:40:00.476Z,1.30
2023-02-19T21:45:03.193Z,1.80
2023-02-19T21:50:07.812Z,1.10
2023-02-19T21:55:10.005Z,1.70
2023-02-19T22:00:13.189Z,1.20
2023-02-19T22:05:17.366Z,1.30
2023-02-19T22:10:20.068Z,1.43
2023-02-19T22:15:21.823Z,2.40
2023-02-19T22:20:25.432Z,1.63
2023-02-19T22:25:28.008Z,1.30
2023-02-19T22:30:30.089Z,1.20
2023-02-19T22:35:34.089Z,0.87
2023-02-19T22:40:35.953Z,2.00
2023-02-19T22:45:38.519Z,1.60
2023-02-19T22:50:42.143Z,1.50
2023-02-19T22:55:44.301Z,1.97
2023-02-19T23:00:46.640Z,1.60
2023-02-19T23:05:50.160Z,1.47
2023-02-19T23:10:52.224Z,1.43
2023-02-19T23:15:53.992Z,1.67
2023-02-19T23:20:57.368Z,2.30
2023-02-19T23:25:59.567Z,1.40
2023-02-19T23:31:02.257Z,1.63
2023-02-19T23:36:07.242Z,1.40
2023-02-19T23:41:09.708Z,1.90
2023-02-19T23:46:14.997Z,1.63
2023-02-19T23:51:18.827Z,1.60
2023-02-19T23:56:23.674Z,1.70
